Time;durP1;ratioP1;P1;durP2;ratioP2;P2;SDS_P1;SDS_P2;PMS_P1;PMS_P2;Temp;Humidity;BMP_temperature;BMP_pressure;BME280_temperature;BME280_humidity;BME280_pressure;Samples;Min_cycle;Max_cycle;Signal;HPM_P1;HPM_P2
2023/11/21 00:00:48;;;;;;;34.20;19.90;;;;;;;2.16;76.22;100681.23;107512;1252;112293;-61
2023/11/21 00:03:36;;;;;;;33.40;19.90;;;;;;;2.18;76.41;100681.67;107611;1253;111537;-62
2023/11/21 00:06:08;;;;;;;33.80;21.30;;;;;;;2.20;76.39;100685.30;107585;1251;108328;-62
2023/11/21 00:08:37;;;;;;;36.10;19.60;;;;;;;2.23;76.70;100684.42;107581;1252;98392;-62
2023/11/21 00:11:06;;;;;;;30.40;19.40;;;;;;;2.26;76.68;100684.58;107629;1251;97816;-61
2023/11/21 00:13:34;;;;;;;31.30;19.00;;;;;;;2.31;76.54;100684.52;107592;1253;111059;-63
2023/11/21 00:16:04;;;;;;;36.00;18.80;;;;;;;2.36;76.58;100683.38;107644;1252;108077;-62
2023/11/21 00:18:32;;;;;;;32.40;19.40;;;;;;;2.42;76.85;100688.34;107632;1251;106643;-62
2023/11/21 00:21:00;;;;;;;34.60;19.50;;;;;;;2.45;76.76;100690.99;107673;1251;97847;-62
2023/11/21 00:23:28;;;;;;;29.80;17.50;;;;;;;2.45;76.94;100690.30;107661;1254;97956;-62
2023/11/21 00:25:57;;;;;;;27.60;17.50;;;;;;;2.41;76.51;100691.91;107597;1251;111922;-63
2023/11/21 00:28:26;;;;;;;32.20;17.70;;;;;;;2.37;76.88;100687.38;107611;1251;109246;-61
2023/11/21 00:30:54;;;;;;;32.00;18.20;;;;;;;2.32;76.76;100689.23;107606;1251;108291;-61
2023/11/21 00:33:23;;;;;;;33.10;20.30;;;;;;;2.34;77.08;100681.34;107602;1255;99215;-62
2023/11/21 00:35:52;;;;;;;39.00;20.10;;;;;;;2.39;77.29;100686.05;107677;1251;97830;-63
2023/11/21 00:38:20;;;;;;;31.50;18.30;;;;;;;2.43;77.45;100687.91;107540;1251;112265;-61
2023/11/21 00:40:48;;;;;;;29.40;19.30;;;;;;;2.48;77.96;100684.27;107541;1253;109830;-61
2023/11/21 00:43:17;;;;;;;30.20;18.00;;;;;;;2.54;77.76;100684.86;107560;1253;107751;-61
2023/11/21 00:45:48;;;;;;;31.60;18.10;;;;;;;2.60;77.86;100690.86;107637;1252;97852;-61
2023/11/21 00:48:20;;;;;;;30.20;18.10;;;;;;;2.66;77.87;100692.66;107625;1251;97740;-61
2023/11/21 00:50:50;;;;;;;31.30;17.20;;;;;;;2.68;77.38;100697.17;107567;1253;111829;-60
2023/11/21 00:53:18;;;;;;;27.60;18.50;;;;;;;2.64;77.16;100696.67;107429;1253;109840;-61
2023/11/21 00:55:46;;;;;;;27.20;16.70;;;;;;;2.61;77.23;100697.70;107430;1252;108380;-60
2023/11/21 00:58:14;;;;;;;34.20;18.90;;;;;;;2.64;77.32;100697.72;107426;1253;97766;-62
2023/11/21 01:00:43;;;;;;;27.40;17.40;;;;;;;2.69;77.63;100695.52;107582;1255;97755;-62
2023/11/21 01:03:12;;;;;;;30.10;18.20;;;;;;;2.72;77.76;100690.91;107616;1254;111616;-62
2023/11/21 01:05:41;;;;;;;31.30;18.00;;;;;;;2.77;77.82;100686.20;107555;1252;109994;-62
2023/11/21 01:08:10;;;;;;;34.00;18.20;;;;;;;2.80;77.83;100683.35;107527;1251;108337;-62
2023/11/21 01:10:38;;;;;;;35.40;20.10;;;;;;;2.82;77.67;100683.58;107561;1251;97806;-62
2023/11/21 01:13:07;;;;;;;29.40;17.60;;;;;;;2.84;77.87;100678.52;107579;1252;97716;-62
2023/11/21 01:15:35;;;;;;;38.80;19.40;;;;;;;2.89;77.92;100682.86;107485;1251;110274;-62
2023/11/21 01:18:03;;;;;;;34.40;19.70;;;;;;;2.93;77.84;100682.30;107588;1251;108794;-62
2023/11/21 01:20:32;;;;;;;30.20;18.80;;;;;;;2.93;77.59;100681.02;107648;1253;108307;-62
2023/11/21 01:23:01;;;;;;;33.40;20.60;;;;;;;2.94;77.68;100681.15;107526;1255;97910;-62
2023/11/21 01:25:29;;;;;;;37.30;19.00;;;;;;;2.95;77.56;100683.20;107471;1257;98254;-61
2023/11/21 01:27:57;;;;;;;31.50;17.60;;;;;;;2.97;77.61;100678.67;107591;1252;112290;-62
2023/11/21 01:30:25;;;;;;;31.90;18.80;;;;;;;2.98;77.46;100677.91;107586;1253;109856;-62
2023/11/21 01:32:53;;;;;;;33.20;20.50;;;;;;;2.97;77.40;100675.64;107554;1255;107653;-62
2023/11/21 01:35:22;;;;;;;33.00;18.50;;;;;;;2.99;77.45;100672.55;107612;1251;97830;-62
2023/11/21 01:37:50;;;;;;;32.10;17.80;;;;;;;2.97;77.16;100669.77;107555;1253;97733;-62
2023/11/21 01:40:19;;;;;;;35.20;17.60;;;;;;;3.00;77.46;100665.57;107553;1255;111546;-61
2023/11/21 01:42:48;;;;;;;36.70;19.40;;;;;;;3.02;77.58;100670.77;107598;1250;108708;-60
2023/11/21 01:45:17;;;;;;;31.00;17.60;;;;;;;3.02;77.70;100668.66;107645;1250;108229;-62
2023/11/21 01:47:45;;;;;;;32.00;18.40;;;;;;;3.05;77.77;100669.88;107505;1252;98432;-62
2023/11/21 01:50:17;;;;;;;34.60;19.70;;;;;;;3.06;77.75;100674.98;107637;1251;98335;-60
2023/11/21 01:52:47;;;;;;;34.40;19.40;;;;;;;3.08;77.44;100684.25;107683;1255;111235;-61
2023/11/21 01:55:20;;;;;;;31.20;19.70;;;;;;;3.10;77.62;100681.60;107643;1250;108500;-61
2023/11/21 01:57:59;;;;;;;35.00;20.10;;;;;;;3.14;77.67;100675.73;107612;1250;108114;-62
2023/11/21 02:00:28;;;;;;;34.20;19.20;;;;;;;3.15;77.43;100673.00;107724;1255;97838;-62
2023/11/21 02:02:59;;;;;;;30.30;19.60;;;;;;;3.14;77.31;100677.69;107568;1254;97983;-61
2023/11/21 02:05:29;;;;;;;36.20;19.80;;;;;;;3.10;77.36;100677.92;107563;1252;111291;-63
2023/11/21 02:08:00;;;;;;;35.50;19.00;;;;;;;3.09;77.35;100676.20;107580;1253;109844;-62
2023/11/21 02:10:30;;;;;;;30.30;20.00;;;;;;;3.02;77.42;100670.76;107413;1253;108614;-61
2023/11/21 02:13:02;;;;;;;35.30;19.70;;;;;;;2.96;77.17;100668.83;107632;1251;97858;-62
2023/11/21 02:15:31;;;;;;;29.40;19.30;;;;;;;2.95;77.47;100665.34;107643;1252;97715;-61
2023/11/21 02:18:00;;;;;;;39.50;19.60;;;;;;;2.94;77.25;100663.42;107524;1252;111058;-61
2023/11/21 02:20:29;;;;;;;34.10;19.80;;;;;;;2.95;77.27;100661.06;107601;1251;110092;-62
2023/11/21 02:22:58;;;;;;;35.50;20.30;;;;;;;2.95;77.62;100666.37;107611;1253;108611;-60
2023/11/21 02:25:30;;;;;;;31.00;19.90;;;;;;;2.95;77.46;100667.12;107598;1253;97767;-63
2023/11/21 02:28:01;;;;;;;34.50;21.70;;;;;;;2.94;77.65;100670.32;107556;1255;99051;-61
2023/11/21 02:30:33;;;;;;;40.60;21.00;;;;;;;2.95;77.83;100670.62;107529;1253;111003;-61
2023/11/21 02:33:02;;;;;;;32.30;19.80;;;;;;;2.94;77.69;100667.34;107618;1251;108680;-62
2023/11/21 02:35:31;;;;;;;34.50;21.10;;;;;;;2.96;77.78;100671.63;107579;1253;107779;-61
2023/11/21 02:38:01;;;;;;;35.80;19.80;;;;;;;2.96;77.95;100673.77;107606;1252;97832;-61
2023/11/21 02:40:30;;;;;;;36.00;20.60;;;;;;;2.93;77.79;100676.74;107694;1251;97842;-63
2023/11/21 02:42:59;;;;;;;35.00;19.40;;;;;;;2.94;78.06;100680.60;107618;1252;111787;-61
2023/11/21 02:45:28;;;;;;;37.50;21.30;;;;;;;2.93;78.32;100679.06;107589;1252;108143;-61
2023/11/21 02:47:58;;;;;;;35.60;19.50;;;;;;;2.90;77.93;100678.75;107640;1251;108667;-61
2023/11/21 02:50:27;;;;;;;35.10;20.10;;;;;;;2.87;77.91;100680.84;107589;1251;97819;-62
2023/11/21 02:53:00;;;;;;;36.00;20.60;;;;;;;2.88;77.96;100673.35;107632;1251;97814;-63
2023/11/21 02:55:28;;;;;;;35.50;20.70;;;;;;;2.88;77.87;100671.91;107575;1250;110464;-61
2023/11/21 02:57:57;;;;;;;35.60;20.90;;;;;;;2.88;78.06;100669.44;107558;1253;109157;-61
2023/11/21 03:00:26;;;;;;;38.80;20.80;;;;;;;2.90;78.57;100673.21;107584;1254;107159;-62
2023/11/21 03:02:57;;;;;;;37.80;22.80;;;;;;;2.93;78.57;100668.46;107620;1251;97732;-61
2023/11/21 03:05:28;;;;;;;37.90;21.70;;;;;;;2.97;78.61;100667.36;107610;1251;97745;-62
2023/11/21 03:07:57;;;;;;;37.30;21.70;;;;;;;2.98;78.34;100661.80;107588;1251;111351;-62
2023/11/21 03:10:27;;;;;;;36.70;20.90;;;;;;;2.97;78.46;100662.52;107599;1251;109111;-61
2023/11/21 03:12:57;;;;;;;37.20;20.70;;;;;;;2.97;78.44;100665.19;107621;1251;108766;-61
2023/11/21 03:15:26;;;;;;;36.40;21.90;;;;;;;2.97;78.35;100663.41;107592;1254;97838;-61
2023/11/21 03:17:54;;;;;;;39.80;20.70;;;;;;;2.98;78.50;100664.10;107574;1256;97845;-60
2023/11/21 03:20:22;;;;;;;31.60;19.70;;;;;;;2.97;78.35;100662.04;107601;1253;111926;-62
2023/11/21 03:22:51;;;;;;;37.70;20.50;;;;;;;2.95;78.05;100664.63;107608;1251;110070;-61
2023/11/21 03:25:23;;;;;;;33.60;21.20;;;;;;;2.93;78.20;100668.26;107557;1251;107201;-61
2023/11/21 03:27:53;;;;;;;38.40;20.40;;;;;;;2.90;78.11;100665.96;107605;1250;97860;-61
2023/11/21 03:30:22;;;;;;;37.60;20.00;;;;;;;2.88;78.30;100666.96;107610;1251;97697;-62
2023/11/21 03:32:50;;;;;;;34.60;21.80;;;;;;;2.88;78.20;100670.86;107625;1251;111844;-60
2023/11/21 03:35:20;;;;;;;33.20;21.10;;;;;;;2.84;78.22;100670.01;107532;1254;108856;-60
2023/11/21 03:37:49;;;;;;;32.20;20.70;;;;;;;2.83;78.62;100668.70;107578;1253;108194;-62
2023/11/21 03:40:17;;;;;;;40.30;23.50;;;;;;;2.85;78.88;100668.92;107574;1254;99097;-61
2023/11/21 03:42:45;;;;;;;37.60;23.30;;;;;;;2.86;78.77;100666.36;107607;1254;98473;-62
2023/11/21 03:45:14;;;;;;;44.00;25.80;;;;;;;2.86;78.57;100670.08;107580;1254;110669;-62
2023/11/21 03:47:42;;;;;;;46.20;25.70;;;;;;;2.87;78.63;100670.21;107584;1253;109559;-61
2023/11/21 03:50:11;;;;;;;42.60;26.60;;;;;;;2.87;78.78;100670.42;107611;1251;108683;-62
2023/11/21 03:52:40;;;;;;;42.20;22.50;;;;;;;2.89;78.72;100673.84;107609;1254;97866;-61
2023/11/21 03:55:10;;;;;;;41.40;24.50;;;;;;;2.90;78.70;100667.42;107612;1251;98350;-61
2023/11/21 03:57:40;;;;;;;43.40;23.80;;;;;;;2.91;78.75;100668.72;107660;1255;110717;-60
2023/11/21 04:00:10;;;;;;;40.30;22.90;;;;;;;2.93;78.75;100669.68;107641;1251;110249;-61
2023/11/21 04:02:41;;;;;;;43.60;23.00;;;;;;;2.91;78.34;100673.73;107549;1253;107867;-61
2023/11/21 04:05:09;;;;;;;43.40;22.90;;;;;;;2.90;78.72;100671.27;107618;1254;97917;-62
2023/11/21 04:07:38;;;;;;;42.00;23.40;;;;;;;2.90;78.71;100675.02;107624;1251;97734;-62
2023/11/21 04:10:12;;;;;;;38.40;22.30;;;;;;;2.91;79.19;100674.98;107679;1251;111510;-62
2023/11/21 04:12:41;;;;;;;34.10;22.00;;;;;;;2.90;78.91;100678.92;107563;1254;109969;-62
2023/11/21 04:15:11;;;;;;;36.60;20.40;;;;;;;2.89;79.10;100681.80;107608;1252;108577;-62
2023/11/21 04:17:40;;;;;;;35.80;21.40;;;;;;;2.88;78.92;100685.22;107575;1254;97833;-61
2023/11/21 04:20:09;;;;;;;34.10;20.10;;;;;;;2.85;79.06;100687.35;107650;1252;98398;-61
2023/11/21 04:22:44;;;;;;;32.80;20.40;;;;;;;2.86;79.15;100687.64;107596;1256;111323;-60
2023/11/21 04:25:15;;;;;;;31.90;18.70;;;;;;;2.90;79.33;100687.96;107615;1254;110233;-62
2023/11/21 04:27:45;;;;;;;41.80;24.00;;;;;;;2.93;79.31;100688.80;107660;1254;107656;-62
2023/11/21 04:30:15;;;;;;;38.40;23.00;;;;;;;2.97;79.70;100691.02;107583;1254;97743;-62
2023/11/21 04:32:43;;;;;;;34.80;21.10;;;;;;;3.01;79.52;100688.05;107609;1254;98491;-62
2023/11/21 04:35:11;;;;;;;31.00;19.70;;;;;;;3.03;79.72;100690.17;107534;1253;110958;-62
2023/11/21 04:37:40;;;;;;;32.90;18.60;;;;;;;3.07;79.59;100685.19;107606;1255;108884;-61
2023/11/21 04:40:09;;;;;;;29.90;17.90;;;;;;;3.06;79.20;100686.83;107619;1251;109472;-61
2023/11/21 04:42:38;;;;;;;34.40;19.10;;;;;;;3.03;79.34;100686.84;107627;1251;97719;-61
2023/11/21 04:45:11;;;;;;;31.20;18.90;;;;;;;2.96;79.55;100686.33;107591;1254;97909;-61
2023/11/21 04:47:41;;;;;;;32.80;18.50;;;;;;;2.90;79.54;100690.06;107625;1251;110945;-60
2023/11/21 04:50:10;;;;;;;32.50;19.10;;;;;;;2.88;79.68;100700.08;107562;1254;109976;-61
2023/11/21 04:52:39;;;;;;;33.50;20.00;;;;;;;2.87;79.81;100699.95;107597;1254;108280;-60
2023/11/21 04:55:09;;;;;;;33.80;20.00;;;;;;;2.87;79.77;100696.27;107611;1254;97835;-62
2023/11/21 04:57:42;;;;;;;35.30;20.20;;;;;;;2.88;79.81;100695.65;107613;1251;98468;-61
2023/11/21 05:00:10;;;;;;;33.70;18.00;;;;;;;2.90;79.88;100691.83;107584;1253;111138;-61
2023/11/21 05:02:44;;;;;;;34.60;18.90;;;;;;;2.90;80.15;100692.37;107632;1253;110136;-61
2023/11/21 05:05:14;;;;;;;29.90;19.20;;;;;;;2.87;80.29;100692.56;107556;1253;107983;-62
2023/11/21 05:07:43;;;;;;;34.00;21.20;;;;;;;2.87;80.40;100690.08;107523;1253;97896;-62
2023/11/21 05:10:12;;;;;;;35.60;20.50;;;;;;;2.89;80.59;100687.62;107617;1251;97833;-62
2023/11/21 05:12:42;;;;;;;38.20;21.00;;;;;;;2.90;80.50;100689.55;107601;1256;111853;-64
2023/11/21 05:15:14;;;;;;;36.70;21.60;;;;;;;2.89;80.45;100692.92;107671;1253;109518;-62
2023/11/21 05:17:45;;;;;;;39.10;21.40;;;;;;;2.90;80.59;100686.86;107536;1254;108443;-62
2023/11/21 05:20:17;;;;;;;41.00;22.30;;;;;;;2.91;80.50;100688.39;107575;1253;97833;-62
2023/11/21 05:22:50;;;;;;;39.90;21.10;;;;;;;2.92;80.46;100687.84;107555;1253;98360;-61
2023/11/21 05:25:18;;;;;;;35.50;20.90;;;;;;;2.91;80.50;100688.23;107527;1253;110981;-61
2023/11/21 05:27:47;;;;;;;35.80;20.40;;;;;;;2.93;80.67;100693.08;107607;1251;109740;-61
2023/11/21 05:30:15;;;;;;;35.10;21.00;;;;;;;2.93;80.53;100694.11;107566;1253;106827;-61
2023/11/21 05:32:44;;;;;;;34.10;20.80;;;;;;;2.94;80.53;100694.78;107549;1255;97829;-62
2023/11/21 05:35:15;;;;;;;33.40;19.20;;;;;;;2.95;80.46;100697.37;107613;1251;97736;-60
2023/11/21 05:37:46;;;;;;;29.50;19.20;;;;;;;2.99;80.58;100700.19;107593;1253;111667;-61
2023/11/21 05:40:15;;;;;;;38.80;20.10;;;;;;;2.99;80.37;100700.69;107479;1258;109271;-61
2023/11/21 05:42:44;;;;;;;46.50;21.50;;;;;;;3.01;80.46;100699.19;107470;1253;107866;-62
2023/11/21 05:45:13;;;;;;;41.40;21.90;;;;;;;3.00;80.16;100704.69;107510;1253;97864;-62
2023/11/21 05:47:45;;;;;;;38.50;21.70;;;;;;;3.03;80.52;100707.05;107528;1255;99047;-61
2023/11/21 05:50:16;;;;;;;36.20;22.00;;;;;;;3.07;80.49;100717.98;107573;1253;110567;-60
2023/11/21 05:52:46;;;;;;;32.50;19.90;;;;;;;3.10;80.45;100726.09;107591;1253;108804;-61
2023/11/21 05:55:14;;;;;;;36.70;20.80;;;;;;;3.11;80.10;100733.82;107524;1251;106712;-61
2023/11/21 05:57:44;;;;;;;32.20;17.70;;;;;;;3.17;80.31;100740.97;107503;1253;97843;-61
2023/11/21 06:00:21;;;;;;;31.90;18.90;;;;;;;3.21;80.41;100742.13;107493;1255;97893;-61
2023/11/21 06:02:53;;;;;;;30.60;18.90;;;;;;;3.20;80.06;100741.33;107466;1255;112653;-61
2023/11/21 06:05:24;;;;;;;31.20;20.00;;;;;;;3.19;80.06;100750.80;107523;1251;109756;-61
2023/11/21 06:07:56;;;;;;;33.90;19.30;;;;;;;3.20;80.29;100753.55;107494;1253;108674;-61
2023/11/21 06:10:25;;;;;;;33.10;18.60;;;;;;;3.21;80.33;100751.71;107496;1251;97850;-62
2023/11/21 06:12:54;;;;;;;40.70;20.80;;;;;;;3.24;80.57;100754.75;107554;1256;97918;-62
2023/11/21 06:15:23;;;;;;;33.60;21.30;;;;;;;3.28;80.79;100757.52;107440;1256;111773;-62
2023/11/21 06:17:52;;;;;;;39.70;20.80;;;;;;;3.36;80.61;100764.30;107508;1255;109403;-62
2023/11/21 06:20:22;;;;;;;48.40;25.60;;;;;;;3.40;80.45;100764.64;107564;1256;106807;-61
2023/11/21 06:22:51;;;;;;;40.10;23.90;;;;;;;3.44;80.59;100766.34;107546;1253;98095;-61
2023/11/21 06:25:20;;;;;;;36.50;22.90;;;;;;;3.50;80.76;100767.41;107534;1251;97909;-61
2023/11/21 06:27:52;;;;;;;44.50;21.90;;;;;;;3.57;80.82;100770.02;107512;1255;112492;-61
2023/11/21 06:30:21;;;;;;;37.30;21.00;;;;;;;3.64;80.75;100772.30;107467;1255;108805;-61
2023/11/21 06:32:51;;;;;;;35.30;21.70;;;;;;;3.68;80.69;100774.70;107447;1254;108263;-62
2023/11/21 06:35:20;;;;;;;39.10;23.20;;;;;;;3.72;80.86;100775.46;107440;1253;97869;-62
2023/11/21 06:37:48;;;;;;;35.80;22.00;;;;;;;3.79;80.75;100774.54;107450;1253;97745;-62
2023/11/21 06:40:18;;;;;;;45.30;25.10;;;;;;;3.86;80.52;100776.45;107518;1251;112359;-61
2023/11/21 06:42:48;;;;;;;38.90;22.40;;;;;;;3.91;80.77;100776.86;107554;1253;109080;-61
2023/11/21 06:45:17;;;;;;;39.40;21.70;;;;;;;4.00;80.88;100772.74;107441;1253;107866;-61
2023/11/21 06:47:46;;;;;;;33.60;21.20;;;;;;;4.11;80.68;100775.14;107503;1253;97828;-62
2023/11/21 06:50:15;;;;;;;38.40;21.30;;;;;;;4.17;80.43;100777.98;107506;1253;97719;-61
2023/11/21 06:52:44;;;;;;;31.70;21.00;;;;;;;4.19;80.28;100776.39;107529;1253;110779;-61
2023/11/21 06:55:13;;;;;;;38.90;22.10;;;;;;;4.20;80.09;100778.28;107475;1255;109516;-61
2023/11/21 06:57:41;;;;;;;37.50;20.60;;;;;;;4.22;80.02;100783.16;107447;1255;107797;-62
2023/11/21 07:00:11;;;;;;;36.80;22.10;;;;;;;4.24;80.00;100782.70;107480;1253;97671;-62
2023/11/21 07:02:39;;;;;;;38.60;23.00;;;;;;;4.29;79.96;100784.15;107453;1254;97977;-61
2023/11/21 07:05:08;;;;;;;37.20;22.10;;;;;;;4.33;80.10;100780.16;107476;1253;111131;-62
2023/11/21 07:07:37;;;;;;;40.50;23.50;;;;;;;4.38;79.88;100780.02;107471;1253;109981;-63
2023/11/21 07:10:08;;;;;;;40.60;22.90;;;;;;;4.48;80.12;100780.48;107495;1256;107471;-62
2023/11/21 07:12:36;;;;;;;41.30;22.40;;;;;;;4.58;80.16;100782.32;107492;1256;97915;-61
2023/11/21 07:15:08;;;;;;;36.70;22.70;;;;;;;4.68;79.97;100781.15;107562;1253;97932;-61
2023/11/21 07:17:37;;;;;;;35.00;21.10;;;;;;;4.78;79.89;100781.05;107549;1253;111030;-61
2023/11/21 07:20:10;;;;;;;37.90;23.10;;;;;;;4.85;79.49;100771.89;107572;1256;109635;-61
2023/11/21 07:22:39;;;;;;;35.10;18.80;;;;;;;4.92;79.08;100769.13;107592;1255;108080;-62
2023/11/21 07:25:09;;;;;;;31.50;19.90;;;;;;;4.96;78.28;100765.86;107542;1253;97816;-62
2023/11/21 07:27:38;;;;;;;36.70;21.70;;;;;;;5.02;78.59;100767.61;107551;1253;98443;-61
2023/11/21 07:30:09;;;;;;;32.40;20.40;;;;;;;5.12;78.35;100769.13;107533;1253;112007;-61
2023/11/21 07:32:39;;;;;;;39.90;22.50;;;;;;;5.19;77.95;100764.20;107629;1253;108819;-61
2023/11/21 07:35:09;;;;;;;40.90;21.60;;;;;;;5.29;77.69;100765.33;107552;1256;107606;-61
2023/11/21 07:37:38;;;;;;;31.90;20.80;;;;;;;5.33;77.01;100759.52;107557;1253;97873;-62
2023/11/21 07:40:08;;;;;;;37.20;20.50;;;;;;;5.44;77.30;100756.66;107549;1254;98463;-62
2023/11/21 07:42:38;;;;;;;36.20;22.20;;;;;;;5.63;77.58;100755.39;107593;1255;110730;-62
2023/11/21 07:45:07;;;;;;;37.70;22.40;;;;;;;5.77;76.69;100759.27;107569;1255;108014;-62
2023/11/21 07:47:36;;;;;;;37.70;20.90;;;;;;;5.79;76.25;100761.94;107523;1253;107579;-62
2023/11/21 07:50:07;;;;;;;37.80;21.30;;;;;;;5.78;75.77;100768.79;107572;1251;97942;-61
2023/11/21 07:52:36;;;;;;;37.10;21.60;;;;;;;5.74;76.14;100776.88;107637;1255;97712;-61
2023/11/21 07:55:05;;;;;;;34.10;20.60;;;;;;;5.75;75.91;100784.64;107610;1256;111167;-62
2023/11/21 07:57:33;;;;;;;34.40;20.80;;;;;;;5.71;75.96;100784.95;107622;1256;109090;-60
2023/11/21 08:00:01;;;;;;;35.80;22.40;;;;;;;5.70;76.04;100786.05;107535;1256;107912;-61
2023/11/21 08:02:42;;;;;;;35.70;20.60;;;;;;;5.72;76.04;100791.80;107558;1254;97723;-62
2023/11/21 08:05:12;;;;;;;40.40;21.40;;;;;;;5.73;76.30;100794.61;107655;1256;97938;-62
2023/11/21 08:07:52;;;;;;;34.00;20.80;;;;;;;5.79;76.36;100800.45;107569;1251;112125;-62
2023/11/21 08:10:21;;;;;;;36.70;21.70;;;;;;;5.83;76.27;100799.28;107552;1256;109338;-62
2023/11/21 08:12:50;;;;;;;34.30;20.00;;;;;;;5.81;75.97;100802.39;107629;1255;107039;-62
2023/11/21 08:15:19;;;;;;;32.90;19.70;;;;;;;5.83;76.21;100803.34;107537;1255;97756;-63
2023/11/21 08:17:48;;;;;;;36.70;21.40;;;;;;;5.87;75.82;100803.80;107586;1254;97826;-62
2023/11/21 08:20:17;;;;;;;33.40;20.60;;;;;;;5.86;75.25;100799.56;107610;1255;111793;-62
2023/11/21 08:22:47;;;;;;;34.30;21.40;;;;;;;5.84;74.68;100791.55;107612;1255;109429;-62
2023/11/21 08:25:19;;;;;;;40.00;22.10;;;;;;;5.84;74.97;100787.95;107643;1255;107282;-62
2023/11/21 08:27:48;;;;;;;41.20;21.00;;;;;;;5.89;75.18;100792.11;107656;1251;97861;-61
2023/11/21 08:30:19;;;;;;;37.20;20.70;;;;;;;5.94;74.99;100792.80;107614;1257;98595;-63
2023/11/21 08:32:47;;;;;;;33.60;21.20;;;;;;;5.96;74.82;100794.44;107597;1257;110317;-62
2023/11/21 08:35:16;;;;;;;35.40;20.70;;;;;;;6.01;74.42;100795.95;107591;1256;108604;-62
2023/11/21 08:37:44;;;;;;;34.10;20.80;;;;;;;6.04;74.10;100791.48;107595;1251;107883;-62
2023/11/21 08:40:16;;;;;;;36.40;21.30;;;;;;;6.10;73.81;100799.03;107605;1251;97914;-63
2023/11/21 08:42:46;;;;;;;36.10;21.50;;;;;;;6.21;74.48;100792.19;107559;1251;97870;-63
2023/11/21 08:45:17;;;;;;;35.30;21.50;;;;;;;6.35;74.72;100789.45;107525;1254;111415;-62
2023/11/21 08:47:46;;;;;;;31.50;20.40;;;;;;;6.43;74.57;100790.36;107609;1255;110208;-61
2023/11/21 08:50:15;;;;;;;32.60;20.30;;;;;;;6.46;74.34;100789.41;107588;1254;106942;-61
2023/11/21 08:52:45;;;;;;;33.10;20.40;;;;;;;6.53;74.47;100779.48;107579;1251;97816;-61
2023/11/21 08:55:14;;;;;;;36.90;21.00;;;;;;;6.58;74.02;100770.41;107616;1251;98395;-62
2023/11/21 08:57:48;;;;;;;34.60;22.20;;;;;;;6.66;74.09;100765.86;107583;1256;111054;-61
2023/11/21 09:00:19;;;;;;;35.80;21.80;;;;;;;6.87;74.07;100767.29;107627;1254;108702;-61
2023/11/21 09:02:47;;;;;;;34.40;21.20;;;;;;;7.07;74.04;100769.36;107562;1256;106745;-62
2023/11/21 09:05:16;;;;;;;36.50;21.40;;;;;;;7.25;73.47;100760.73;107625;1255;98472;-62
2023/11/21 09:07:46;;;;;;;37.60;21.00;;;;;;;7.42;73.06;100753.56;107614;1251;98449;-62
2023/11/21 09:10:14;;;;;;;35.70;20.80;;;;;;;7.60;72.68;100748.45;107634;1251;111643;-61
2023/11/21 09:12:43;;;;;;;35.70;19.20;;;;;;;7.75;72.56;100745.67;107462;1257;108552;-61
2023/11/21 09:15:11;;;;;;;28.10;19.70;;;;;;;7.88;72.57;100747.38;107557;1251;107076;-61
2023/11/21 09:17:40;;;;;;;31.70;19.90;;;;;;;7.96;72.15;100736.08;107560;1255;97926;-62
2023/11/21 09:20:10;;;;;;;34.00;20.90;;;;;;;7.94;71.62;100730.10;107602;1255;98338;-62
2023/11/21 09:22:39;;;;;;;35.60;21.40;;;;;;;7.93;71.22;100730.05;107564;1251;112344;-62
2023/11/21 09:25:08;;;;;;;34.30;20.40;;;;;;;7.94;70.85;100728.03;107594;1251;109692;-62
2023/11/21 09:27:36;;;;;;;30.80;20.60;;;;;;;7.88;70.68;100734.35;107585;1254;108845;-62
2023/11/21 09:30:09;;;;;;;33.20;19.90;;;;;;;7.87;70.44;100731.08;107544;1251;97917;-62
2023/11/21 09:32:38;;;;;;;39.20;20.90;;;;;;;7.84;70.10;100728.02;107628;1251;97913;-62
2023/11/21 09:35:10;;;;;;;29.80;19.50;;;;;;;7.85;70.32;100724.95;107592;1257;111373;-62
2023/11/21 09:37:38;;;;;;;30.80;19.60;;;;;;;7.93;70.47;100724.70;107643;1251;109847;-61
2023/11/21 09:40:13;;;;;;;33.40;20.10;;;;;;;8.02;69.82;100730.03;107580;1256;107359;-62
2023/11/21 09:43:04;;;;;;;35.90;20.90;;;;;;;8.08;69.70;100733.48;107650;1254;98557;-63
2023/11/21 09:45:39;;;;;;;30.20;19.70;;;;;;;8.17;67.47;100727.65;107580;1254;97813;-62
2023/11/21 09:48:11;;;;;;;28.90;19.10;;;;;;;8.17;68.10;100727.28;107655;1251;111829;-63
2023/11/21 09:50:42;;;;;;;31.70;19.50;;;;;;;8.26;68.77;100727.64;107599;1254;110142;-62
2023/11/21 09:53:17;;;;;;;30.00;19.10;;;;;;;8.65;68.75;100721.33;107606;1253;108921;-62
2023/11/21 09:55:48;;;;;;;33.70;19.50;;;;;;;9.17;68.36;100707.91;107610;1253;97872;-61
2023/11/21 09:58:17;;;;;;;31.90;20.20;;;;;;;10.04;67.91;100706.64;107605;1254;98376;-62
2023/11/21 10:00:47;;;;;;;31.30;18.80;;;;;;;11.02;65.99;100702.69;107617;1254;110343;-63
2023/11/21 10:03:16;;;;;;;40.70;21.10;;;;;;;11.96;65.28;100703.27;107601;1254;109093;-63
2023/11/21 10:05:45;;;;;;;37.80;20.20;;;;;;;12.94;64.42;100710.92;107603;1254;107054;-63
2023/11/21 10:08:14;;;;;;;39.70;20.50;;;;;;;13.92;63.50;100708.73;107628;1255;97833;-61
2023/11/21 10:10:44;;;;;;;24.50;17.30;;;;;;;14.85;61.65;100706.02;107555;1254;98396;-63
2023/11/21 10:13:16;;;;;;;23.50;16.70;;;;;;;15.41;59.15;100712.98;107240;1255;485769;-62
2023/11/21 10:15:50;;;;;;;27.80;16.30;;;;;;;15.84;56.71;100711.32;107676;1253;108697;-63
2023/11/21 10:18:23;;;;;;;22.00;15.40;;;;;;;16.72;55.98;100706.13;107630;1255;107166;-62
2023/11/21 10:20:52;;;;;;;21.20;15.20;;;;;;;17.55;53.80;100701.60;107633;1253;97925;-62
2023/11/21 10:23:22;;;;;;;20.70;14.80;;;;;;;18.21;53.54;100703.05;107679;1252;97847;-63
2023/11/21 10:25:52;;;;;;;19.80;15.00;;;;;;;18.70;50.98;100697.95;107683;1254;110648;-63
2023/11/21 10:28:22;;;;;;;23.00;14.40;;;;;;;19.18;48.77;100695.63;107536;1256;108794;-61
2023/11/21 10:30:51;;;;;;;20.10;14.40;;;;;;;19.57;46.66;100701.00;107565;1255;108983;-62
2023/11/21 10:33:28;;;;;;;19.60;14.30;;;;;;;20.05;44.47;100705.12;107650;1254;97772;-62
2023/11/21 10:35:57;;;;;;;20.80;14.00;;;;;;;20.24;44.58;100707.58;107652;1254;98360;-63
2023/11/21 10:38:27;;;;;;;19.70;13.50;;;;;;;20.32;42.35;100703.63;107617;1251;111013;-63
2023/11/21 10:40:55;;;;;;;17.50;14.10;;;;;;;20.43;42.29;100696.70;107584;1254;108758;-63
2023/11/21 10:43:27;;;;;;;46.40;15.50;;;;;;;20.66;41.47;100695.86;107589;1254;107232;-63
2023/11/21 10:45:59;;;;;;;23.80;14.30;;;;;;;21.07;41.93;100691.75;107578;1252;97849;-63
2023/11/21 10:48:28;;;;;;;22.60;14.90;;;;;;;21.38;41.39;100692.04;107603;1254;97889;-62
2023/11/21 10:50:56;;;;;;;19.30;12.50;;;;;;;21.84;40.25;100693.29;107588;1251;110959;-63
2023/11/21 10:53:28;;;;;;;19.20;12.90;;;;;;;21.93;38.58;100694.89;107568;1254;108206;-63
2023/11/21 10:56:06;;;;;;;15.80;12.90;;;;;;;22.03;38.77;100695.49;107549;1251;107212;-63
2023/11/21 10:58:35;;;;;;;21.10;13.90;;;;;;;22.35;38.46;100694.91;107509;1254;97819;-62
2023/11/21 11:01:06;;;;;;;18.10;12.10;;;;;;;22.56;37.73;100696.70;107528;1254;97839;-62
2023/11/21 11:03:36;;;;;;;18.80;12.80;;;;;;;22.80;36.53;100699.25;107471;1253;110424;-64
2023/11/21 11:06:07;;;;;;;18.70;13.10;;;;;;;23.12;35.95;100699.38;107385;1254;109924;-62
2023/11/21 11:08:35;;;;;;;19.90;13.10;;;;;;;23.35;35.94;100699.38;107422;1254;106950;-63
2023/11/21 11:11:07;;;;;;;14.70;12.30;;;;;;;23.62;35.88;100703.67;107388;1254;97907;-62
2023/11/21 11:13:37;;;;;;;17.60;12.70;;;;;;;23.76;36.04;100707.30;107532;1254;98379;-63
2023/11/21 11:16:10;;;;;;;18.90;13.20;;;;;;;23.80;34.16;100713.73;107488;1254;111684;-63